Time;durP1;ratioP1;P1;durP2;ratioP2;P2;SDS_P1;SDS_P2;PMS_P1;PMS_P2;Temp;Humidity;BMP_temperature;BMP_pressure;BME280_temperature;BME280_humidity;BME280_pressure;Samples;Min_cycle;Max_cycle;Signal;HPM_P1;HPM_P2
2023/08/12 00:00:47;;;;;;;3.70;3.47;;;17.80;99.90;;;;;;5047533;28;21040;-66
2023/08/12 00:03:14;;;;;;;3.83;3.37;;;17.70;99.90;;;;;;5047546;28;20890;-66
2023/08/12 00:05:42;;;;;;;3.30;3.10;;;17.70;99.90;;;;;;5047280;28;20940;-66
2023/08/12 00:08:09;;;;;;;3.10;2.90;;;17.70;99.90;;;;;;5046110;28;20456;-66
2023/08/12 00:10:36;;;;;;;3.40;3.10;;;17.70;99.90;;;;;;5047305;28;20482;-66
2023/08/12 00:13:05;;;;;;;3.73;3.53;;;17.70;99.90;;;;;;5047505;28;20451;-66
2023/08/12 00:15:32;;;;;;;7.90;4.20;;;17.70;99.90;;;;;;5046528;28;20509;-66
2023/08/12 00:17:58;;;;;;;3.40;3.10;;;17.60;99.90;;;;;;5047318;28;20527;-66
2023/08/12 00:20:25;;;;;;;3.20;3.00;;;17.60;99.90;;;;;;5048082;28;20857;-66
2023/08/12 00:22:52;;;;;;;3.93;2.80;;;17.60;99.90;;;;;;5048098;28;20487;-66
2023/08/12 00:25:19;;;;;;;7.10;3.70;;;17.60;99.90;;;;;;5048039;28;21126;-66
2023/08/12 00:27:46;;;;;;;3.43;3.20;;;17.50;99.90;;;;;;5047284;28;20539;-66
2023/08/12 00:30:15;;;;;;;4.23;3.93;;;17.50;99.90;;;;;;5047778;28;20577;-66
2023/08/12 00:32:42;;;;;;;3.90;3.60;;;17.50;99.90;;;;;;5048125;28;20459;-66
2023/08/12 00:35:09;;;;;;;3.70;3.40;;;17.50;99.90;;;;;;5047930;28;20932;-66
2023/08/12 00:37:36;;;;;;;4.37;4.07;;;17.50;99.90;;;;;;5047025;28;21016;-66
2023/08/12 00:40:04;;;;;;;4.77;3.57;;;17.50;99.90;;;;;;5047716;28;20467;-66
2023/08/12 00:42:30;;;;;;;3.60;3.30;;;17.50;99.90;;;;;;5047678;28;20487;-66
2023/08/12 00:44:58;;;;;;;5.80;3.90;;;17.40;99.90;;;;;;5047561;28;20455;-66
2023/08/12 00:47:26;;;;;;;3.73;3.40;;;17.40;99.90;;;;;;5047043;28;20464;-66
2023/08/12 00:49:53;;;;;;;6.50;5.80;;;17.40;99.90;;;;;;5047332;28;21051;-66
2023/08/12 00:52:20;;;;;;;3.60;3.33;;;17.40;99.90;;;;;;5047857;28;20812;-66
2023/08/12 00:54:47;;;;;;;5.07;4.77;;;17.30;99.90;;;;;;5047594;28;20948;-66
2023/08/12 00:57:13;;;;;;;3.80;3.50;;;17.30;99.90;;;;;;5046662;28;20455;-66
2023/08/12 00:59:42;;;;;;;4.90;3.47;;;17.30;99.90;;;;;;5047664;28;20452;-66
2023/08/12 01:02:09;;;;;;;4.50;3.60;;;17.30;99.90;;;;;;5047617;28;20491;-66
2023/08/12 01:04:37;;;;;;;3.73;3.43;;;17.30;99.90;;;;;;5047648;28;20450;-66
2023/08/12 01:07:04;;;;;;;3.93;3.60;;;17.30;99.90;;;;;;5046869;28;20447;-66
2023/08/12 01:09:31;;;;;;;3.73;3.43;;;17.30;99.90;;;;;;5047134;28;20964;-66
2023/08/12 01:12:03;;;;;;;3.60;3.30;;;17.30;99.90;;;;;;5047421;28;20450;-66
2023/08/12 01:14:39;;;;;;;3.80;3.40;;;17.30;99.90;;;;;;5045946;28;20842;-66
2023/08/12 01:17:09;;;;;;;4.10;3.80;;;17.30;99.90;;;;;;5046570;28;20457;-66
2023/08/12 01:19:39;;;;;;;4.10;3.80;;;17.30;99.90;;;;;;5049077;28;20453;-66
2023/08/12 01:22:08;;;;;;;3.73;3.43;;;17.30;99.90;;;;;;5050948;28;20590;-66
2023/08/12 01:24:38;;;;;;;4.27;3.67;;;17.20;99.90;;;;;;5051144;28;20534;-66
2023/08/12 01:27:05;;;;;;;5.20;4.63;;;17.20;99.90;;;;;;5050410;28;20485;-66
2023/08/12 01:29:33;;;;;;;4.60;4.10;;;17.30;99.90;;;;;;5051111;28;20455;-66
2023/08/12 01:32:09;;;;;;;4.17;3.83;;;17.30;99.90;;;;;;5051199;28;20451;-66
2023/08/12 01:34:44;;;;;;;4.53;4.23;;;17.20;99.90;;;;;;5051248;28;20454;-66
2023/08/12 01:37:17;;;;;;;4.57;4.00;;;17.20;99.90;;;;;;5050547;28;20502;-66
2023/08/12 01:39:47;;;;;;;3.97;3.67;;;17.20;99.90;;;;;;5050972;28;20540;-66
2023/08/12 01:42:15;;;;;;;4.13;3.83;;;17.20;99.90;;;;;;5050784;28;20589;-66
2023/08/12 01:44:42;;;;;;;4.97;4.57;;;17.20;99.90;;;;;;5050636;28;20452;-66
2023/08/12 01:47:10;;;;;;;4.50;4.10;;;17.20;99.90;;;;;;5049807;28;20545;-66
2023/08/12 01:49:37;;;;;;;4.60;4.20;;;17.20;99.90;;;;;;5050688;28;20447;-66
2023/08/12 01:52:04;;;;;;;4.23;3.83;;;17.20;99.90;;;;;;5050640;28;20451;-66
2023/08/12 01:54:33;;;;;;;4.43;4.13;;;17.20;99.90;;;;;;5050529;28;20829;-66
2023/08/12 01:57:05;;;;;;;4.03;3.77;;;17.20;99.90;;;;;;5049723;28;20462;-66
2023/08/12 01:59:32;;;;;;;5.00;4.60;;;17.20;99.90;;;;;;5050378;28;21026;-66
2023/08/12 02:01:59;;;;;;;4.13;3.87;;;17.20;99.90;;;;;;5050393;28;21127;-66
2023/08/12 02:04:26;;;;;;;5.17;3.80;;;17.20;99.90;;;;;;5050778;28;20930;-65
2023/08/12 02:06:53;;;;;;;4.30;4.00;;;17.20;99.90;;;;;;5049152;28;20462;-66
2023/08/12 02:09:20;;;;;;;4.33;3.97;;;17.20;99.90;;;;;;5050170;28;20538;-66
2023/08/12 02:11:47;;;;;;;3.87;3.57;;;17.20;99.90;;;;;;5050089;28;20463;-66
2023/08/12 02:14:15;;;;;;;4.70;4.20;;;17.20;99.90;;;;;;5049873;28;20538;-66
2023/08/12 02:16:42;;;;;;;4.70;4.20;;;17.20;99.90;;;;;;5048475;28;20469;-66
2023/08/12 02:19:09;;;;;;;4.97;4.47;;;17.20;99.90;;;;;;5048516;28;21075;-66
2023/08/12 02:21:36;;;;;;;4.80;4.40;;;17.20;99.90;;;;;;5048053;28;20500;-66
2023/08/12 02:24:02;;;;;;;6.40;4.53;;;17.30;99.90;;;;;;5049388;28;20973;-66
2023/08/12 02:26:30;;;;;;;4.90;4.43;;;17.30;99.90;;;;;;5049324;28;20566;-66
2023/08/12 02:28:57;;;;;;;4.40;4.00;;;17.30;99.90;;;;;;5049982;28;20511;-66
2023/08/12 02:31:25;;;;;;;5.17;4.77;;;17.20;99.90;;;;;;5049207;28;20572;-66
2023/08/12 02:33:52;;;;;;;4.20;3.80;;;17.30;99.90;;;;;;5049994;28;20454;-66
2023/08/12 02:36:19;;;;;;;4.20;3.90;;;17.20;99.90;;;;;;5049170;28;20971;-66
2023/08/12 02:38:46;;;;;;;4.27;3.97;;;17.30;99.90;;;;;;5049830;28;20811;-66
2023/08/12 02:41:13;;;;;;;4.97;4.40;;;17.30;99.90;;;;;;5049457;28;20551;-66
2023/08/12 02:43:40;;;;;;;4.07;3.70;;;17.30;99.90;;;;;;5049639;28;20594;-66
2023/08/12 02:46:07;;;;;;;5.13;4.57;;;17.30;99.90;;;;;;5048881;28;20452;-66
2023/08/12 02:48:37;;;;;;;5.17;4.67;;;17.30;99.90;;;;;;5049470;28;20452;-66
2023/08/12 02:51:03;;;;;;;4.47;4.03;;;17.30;99.90;;;;;;5049543;28;20471;-66
2023/08/12 02:53:30;;;;;;;4.53;4.20;;;17.30;99.90;;;;;;5049369;28;20505;-66
2023/08/12 02:55:57;;;;;;;5.67;4.80;;;17.30;99.90;;;;;;5048661;28;20528;-67
2023/08/12 02:58:24;;;;;;;4.00;3.70;;;17.30;99.90;;;;;;5049384;28;20536;-66
2023/08/12 03:00:51;;;;;;;10.47;4.30;;;17.30;99.90;;;;;;5049339;28;20904;-66
2023/08/12 03:03:18;;;;;;;5.40;5.00;;;17.20;99.90;;;;;;5049286;28;21110;-66
2023/08/12 03:05:48;;;;;;;4.27;3.90;;;17.20;99.90;;;;;;5049657;28;20458;-66
2023/08/12 03:08:15;;;;;;;5.63;5.23;;;17.20;99.90;;;;;;5049112;28;20501;-66
2023/08/12 03:10:42;;;;;;;4.27;3.97;;;17.20;99.90;;;;;;5048851;28;21084;-66
2023/08/12 03:13:09;;;;;;;4.50;4.07;;;17.20;99.90;;;;;;5049053;28;20514;-65
2023/08/12 03:15:39;;;;;;;4.27;3.97;;;17.20;99.90;;;;;;5048767;28;20453;-66
2023/08/12 03:18:06;;;;;;;5.43;5.03;;;17.20;99.90;;;;;;5048274;28;20607;-66
2023/08/12 03:20:32;;;;;;;8.97;4.70;;;17.20;99.90;;;;;;5048938;28;20555;-66
2023/08/12 03:23:01;;;;;;;5.30;4.90;;;17.20;99.90;;;;;;5048582;28;20527;-66
2023/08/12 03:25:28;;;;;;;5.00;4.60;;;17.20;99.90;;;;;;5048618;28;20451;-66
2023/08/12 03:27:54;;;;;;;4.80;4.43;;;17.20;99.90;;;;;;5047014;28;20546;-66
2023/08/12 03:30:21;;;;;;;4.27;3.97;;;17.20;99.90;;;;;;5048868;28;21210;-66
2023/08/12 03:32:48;;;;;;;5.07;4.27;;;17.20;99.90;;;;;;5048583;28;20574;-66
2023/08/12 03:35:15;;;;;;;4.60;3.80;;;17.20;99.90;;;;;;5048719;28;20457;-66
2023/08/12 03:37:42;;;;;;;4.90;3.70;;;17.20;99.90;;;;;;5044675;28;20566;-66
2023/08/12 03:40:11;;;;;;;4.17;3.87;;;17.20;99.90;;;;;;5048228;28;20562;-66
2023/08/12 03:42:38;;;;;;;8.33;4.80;;;17.30;99.90;;;;;;5048305;28;20608;-66
2023/08/12 03:45:07;;;;;;;5.70;5.03;;;17.30;99.90;;;;;;5048424;28;20542;-66
2023/08/12 03:47:34;;;;;;;4.30;3.90;;;17.30;99.90;;;;;;5047517;28;20482;-66
2023/08/12 03:50:00;;;;;;;5.47;4.70;;;17.30;99.90;;;;;;5048246;28;20554;-66
2023/08/12 03:52:27;;;;;;;8.67;4.77;;;17.30;99.90;;;;;;5048271;28;21030;-66
2023/08/12 03:54:54;;;;;;;5.30;4.80;;;17.30;99.90;;;;;;5048735;28;20866;-66
2023/08/12 03:57:22;;;;;;;4.80;4.50;;;17.30;99.90;;;;;;5047959;28;20533;-66
2023/08/12 03:59:49;;;;;;;5.00;4.60;;;17.30;99.90;;;;;;5048171;28;20550;-66
2023/08/12 04:02:16;;;;;;;4.60;4.30;;;17.30;99.90;;;;;;5048174;28;20551;-66
2023/08/12 04:04:43;;;;;;;11.33;5.40;;;17.30;99.90;;;;;;5048060;28;20497;-66
2023/08/12 04:07:10;;;;;;;5.33;4.90;;;17.30;99.90;;;;;;5047150;28;20453;-66
2023/08/12 04:09:37;;;;;;;5.77;5.37;;;17.30;99.90;;;;;;5047976;28;20542;-66
2023/08/12 04:12:04;;;;;;;5.83;5.33;;;17.30;99.90;;;;;;5048181;28;20549;-66
2023/08/12 04:14:33;;;;;;;5.47;4.97;;;17.30;99.90;;;;;;5048004;28;20537;-66
2023/08/12 04:16:59;;;;;;;6.20;5.60;;;17.30;99.90;;;;;;5047215;28;20487;-66
2023/08/12 04:19:26;;;;;;;4.97;4.67;;;17.30;99.90;;;;;;5047882;28;20537;-66
2023/08/12 04:21:53;;;;;;;5.47;5.07;;;17.40;99.90;;;;;;5048041;28;20530;-67
2023/08/12 04:24:20;;;;;;;5.67;5.17;;;17.30;99.90;;;;;;5048210;28;20533;-66
2023/08/12 04:26:47;;;;;;;5.40;4.90;;;17.40;99.90;;;;;;5046389;28;20545;-66
2023/08/12 04:29:14;;;;;;;5.00;4.47;;;17.40;99.90;;;;;;5047930;28;20534;-66
2023/08/12 04:31:43;;;;;;;4.87;4.47;;;17.40;99.90;;;;;;5047882;28;20557;-66
2023/08/12 04:34:09;;;;;;;5.47;5.17;;;17.40;99.90;;;;;;5047814;28;20546;-66
2023/08/12 04:36:36;;;;;;;4.23;3.93;;;17.40;99.90;;;;;;5047018;28;20566;-66
2023/08/12 04:39:04;;;;;;;4.83;4.37;;;17.50;99.90;;;;;;5047637;28;20537;-67
2023/08/12 04:41:30;;;;;;;4.57;4.17;;;17.50;99.90;;;;;;5047649;28;20499;-66
2023/08/12 04:43:57;;;;;;;5.80;5.30;;;17.50;99.90;;;;;;5047782;28;20593;-66
2023/08/12 04:46:24;;;;;;;5.30;4.80;;;17.50;99.90;;;;;;5047167;28;20534;-66
2023/08/12 04:48:53;;;;;;;4.97;4.57;;;17.50;99.90;;;;;;5047795;28;20502;-66
2023/08/12 04:51:19;;;;;;;5.60;4.90;;;17.50;99.90;;;;;;5047778;28;20999;-66
2023/08/12 04:53:46;;;;;;;5.10;4.70;;;17.50;99.90;;;;;;5048414;28;20538;-66
2023/08/12 04:56:13;;;;;;;5.50;5.00;;;17.50;99.90;;;;;;5051045;28;20487;-66
2023/08/12 04:58:40;;;;;;;5.27;4.83;;;17.50;99.90;;;;;;5051523;28;20529;-66
2023/08/12 05:01:08;;;;;;;5.63;5.13;;;17.60;99.90;;;;;;5057477;28;20569;-66
2023/08/12 05:03:35;;;;;;;7.00;6.40;;;17.60;99.90;;;;;;5053580;28;20958;-66
2023/08/12 05:06:03;;;;;;;6.70;6.13;;;17.60;99.90;;;;;;5054787;28;20697;-66
2023/08/12 05:08:30;;;;;;;5.00;4.60;;;17.60;99.90;;;;;;5053600;28;20454;-66
2023/08/12 05:10:57;;;;;;;6.40;5.13;;;17.60;99.90;;;;;;5051061;28;21075;-66
2023/08/12 05:13:24;;;;;;;5.77;5.37;;;17.70;99.90;;;;;;5051214;28;20534;-66
2023/08/12 05:15:51;;;;;;;5.87;5.37;;;17.70;99.90;;;;;;5050886;28;20545;-66
2023/08/12 05:18:18;;;;;;;7.00;5.93;;;17.70;99.90;;;;;;5051050;28;21162;-66
2023/08/12 05:20:45;;;;;;;6.13;5.70;;;17.80;99.90;;;;;;5051136;28;21054;-66
2023/08/12 05:23:13;;;;;;;5.70;5.30;;;17.80;99.90;;;;;;5051033;28;20935;-66
2023/08/12 05:25:40;;;;;;;5.40;4.90;;;17.80;99.90;;;;;;5051350;28;20559;-66
2023/08/12 05:28:08;;;;;;;6.43;5.93;;;17.80;99.90;;;;;;5048572;28;20454;-66
2023/08/12 05:30:35;;;;;;;5.40;4.90;;;17.80;99.90;;;;;;5050854;28;20478;-66
2023/08/12 05:33:02;;;;;;;5.43;4.93;;;17.90;99.90;;;;;;5050842;28;20542;-66
2023/08/12 05:35:29;;;;;;;5.97;5.57;;;17.90;99.90;;;;;;5050590;28;21006;-66
2023/08/12 05:37:56;;;;;;;5.73;5.33;;;18.00;99.90;;;;;;5050207;28;20875;-66
2023/08/12 05:40:24;;;;;;;6.23;5.20;;;18.00;99.90;;;;;;5050894;28;21279;-66
2023/08/12 05:42:51;;;;;;;6.20;5.70;;;18.00;99.90;;;;;;5050684;28;20607;-66
2023/08/12 05:45:18;;;;;;;5.83;5.33;;;18.10;99.90;;;;;;5050865;28;20451;-66
2023/08/12 05:47:44;;;;;;;5.63;5.13;;;18.10;99.90;;;;;;5049866;28;20582;-66
2023/08/12 05:50:11;;;;;;;6.23;5.73;;;18.10;99.90;;;;;;5050558;28;20582;-66
2023/08/12 05:52:38;;;;;;;6.03;5.57;;;18.20;99.90;;;;;;5050638;28;20483;-66
2023/08/12 05:55:06;;;;;;;6.90;6.30;;;18.20;99.90;;;;;;5050597;28;20538;-66
2023/08/12 05:57:34;;;;;;;7.20;5.60;;;18.20;99.90;;;;;;5049794;28;20863;-66
2023/08/12 06:00:01;;;;;;;6.30;5.73;;;18.30;99.90;;;;;;5050331;28;20570;-66
2023/08/12 06:02:28;;;;;;;6.10;5.70;;;18.30;99.90;;;;;;5050129;28;20453;-66
2023/08/12 06:04:55;;;;;;;6.27;5.67;;;18.30;99.90;;;;;;5049496;28;21048;-66
2023/08/12 06:07:23;;;;;;;8.23;7.50;;;18.40;99.90;;;;;;5049004;28;20547;-66
2023/08/12 06:09:50;;;;;;;6.60;6.10;;;18.40;99.90;;;;;;5049989;28;20482;-66
2023/08/12 06:12:17;;;;;;;7.47;6.93;;;18.50;99.90;;;;;;5050359;28;20962;-66
2023/08/12 06:14:45;;;;;;;7.47;6.67;;;18.50;99.90;;;;;;5050467;28;20535;-66
2023/08/12 06:17:12;;;;;;;7.60;6.57;;;18.60;99.90;;;;;;5049448;28;20535;-66
2023/08/12 06:19:38;;;;;;;6.73;6.23;;;18.60;99.90;;;;;;5049993;28;20495;-66
2023/08/12 06:22:05;;;;;;;5.97;5.57;;;18.70;99.90;;;;;;5049930;28;20536;-66
2023/08/12 06:24:32;;;;;;;7.23;6.50;;;18.70;99.90;;;;;;5049968;28;20495;-66
2023/08/12 06:26:59;;;;;;;7.23;6.63;;;18.80;99.90;;;;;;5047908;28;20539;-66
2023/08/12 06:29:26;;;;;;;7.63;6.93;;;18.80;99.90;;;;;;5049769;28;20546;-66
2023/08/12 06:31:55;;;;;;;7.10;6.50;;;18.90;99.90;;;;;;5049961;28;20494;-66
2023/08/12 06:34:22;;;;;;;7.17;6.60;;;18.90;99.90;;;;;;5049829;28;20501;-66
2023/08/12 06:36:49;;;;;;;8.20;7.53;;;19.00;99.90;;;;;;5049035;28;20562;-66
2023/08/12 06:39:16;;;;;;;8.10;7.30;;;19.10;99.90;;;;;;5049738;28;20534;-66
2023/08/12 06:41:42;;;;;;;7.80;7.30;;;19.20;99.90;;;;;;5049634;28;20563;-66
2023/08/12 06:44:09;;;;;;;8.63;7.80;;;19.30;99.90;;;;;;5049516;28;20578;-66
2023/08/12 06:46:36;;;;;;;7.83;7.10;;;19.40;99.90;;;;;;5048666;28;20448;-66
2023/08/12 06:49:04;;;;;;;9.87;8.93;;;19.40;99.90;;;;;;5049514;28;20531;-66
2023/08/12 06:51:31;;;;;;;9.30;8.50;;;19.40;99.90;;;;;;5049248;28;20559;-66
2023/08/12 06:53:58;;;;;;;8.10;7.50;;;19.50;99.90;;;;;;5049249;28;21363;-66
2023/08/12 06:56:25;;;;;;;7.50;6.80;;;19.60;99.90;;;;;;5048591;28;20535;-66
2023/08/12 06:58:52;;;;;;;8.23;7.60;;;19.70;99.90;;;;;;5049252;28;20535;-66
2023/08/12 07:01:19;;;;;;;8.37;7.10;;;19.80;99.90;;;;;;5049056;28;20557;-66
2023/08/12 07:03:46;;;;;;;9.30;7.93;;;19.90;99.90;;;;;;5049454;28;21009;-66
2023/08/12 07:06:14;;;;;;;7.93;7.33;;;20.10;99.90;;;;;;5048629;28;20875;-67
2023/08/12 07:08:41;;;;;;;8.37;7.40;;;20.30;99.90;;;;;;5049560;28;20823;-66
2023/08/12 07:11:08;;;;;;;8.10;7.50;;;20.60;99.90;;;;;;5049050;28;20564;-66
2023/08/12 07:13:35;;;;;;;6.57;6.17;;;20.80;99.90;;;;;;5049150;28;20815;-66
2023/08/12 07:16:01;;;;;;;7.30;6.60;;;20.90;99.90;;;;;;5048233;28;20462;-66
2023/08/12 07:18:29;;;;;;;8.07;7.27;;;21.00;99.90;;;;;;5048426;28;20546;-66
2023/08/12 07:20:58;;;;;;;6.87;6.17;;;21.10;99.90;;;;;;5047322;28;20561;-65
2023/08/12 07:23:26;;;;;;;7.60;7.03;;;21.20;99.90;;;;;;5047034;28;20484;-65
2023/08/12 07:25:53;;;;;;;8.10;7.50;;;21.20;99.90;;;;;;5047340;28;20996;-66
2023/08/12 07:28:20;;;;;;;7.07;6.57;;;21.30;99.90;;;;;;5045571;28;20890;-66
2023/08/12 07:30:47;;;;;;;7.50;6.83;;;21.20;99.90;;;;;;5048608;28;20562;-66
2023/08/12 07:33:13;;;;;;;8.03;7.47;;;21.20;99.90;;;;;;5047675;28;20540;-66
2023/08/12 07:35:40;;;;;;;10.73;8.87;;;21.30;99.90;;;;;;5048876;28;20888;-66
2023/08/12 07:38:08;;;;;;;8.13;7.43;;;21.30;99.90;;;;;;5047595;28;20450;-66
2023/08/12 07:40:36;;;;;;;8.67;7.23;;;21.30;99.90;;;;;;5045091;28;20495;-66
2023/08/12 07:43:03;;;;;;;8.90;8.23;;;21.40;99.90;;;;;;5047979;28;20445;-66
2023/08/12 07:45:30;;;;;;;7.30;6.73;;;21.40;99.90;;;;;;5047913;28;20447;-66
2023/08/12 07:47:57;;;;;;;9.30;8.27;;;21.50;99.90;;;;;;5047463;28;20455;-66
2023/08/12 07:50:24;;;;;;;7.90;7.20;;;21.60;99.90;;;;;;5048340;28;20481;-66
2023/08/12 07:52:51;;;;;;;9.60;7.77;;;21.70;99.90;;;;;;5048310;28;20447;-66
2023/08/12 07:55:19;;;;;;;8.37;7.33;;;21.80;99.90;;;;;;5048157;28;20500;-66
2023/08/12 07:57:47;;;;;;;8.20;7.47;;;21.90;99.90;;;;;;5047479;28;20489;-67
2023/08/12 08:00:14;;;;;;;7.17;6.67;;;22.00;99.90;;;;;;5048103;28;21009;-66
2023/08/12 08:02:41;;;;;;;7.80;7.10;;;22.20;99.90;;;;;;5048219;28;20457;-66
2023/08/12 08:05:08;;;;;;;7.13;6.60;;;22.30;99.90;;;;;;5047987;28;20591;-66
2023/08/12 08:07:35;;;;;;;6.27;5.77;;;22.40;99.90;;;;;;5044602;28;20527;-67
2023/08/12 08:10:02;;;;;;;7.07;6.63;;;22.50;99.90;;;;;;5047248;28;20472;-67
2023/08/12 08:12:29;;;;;;;6.27;5.70;;;22.50;99.90;;;;;;5047397;28;20458;-67
2023/08/12 08:14:57;;;;;;;6.23;5.57;;;22.60;99.90;;;;;;5047551;28;20540;-67
2023/08/12 08:17:24;;;;;;;6.57;6.03;;;22.70;99.90;;;;;;5046762;28;20449;-67
2023/08/12 08:19:51;;;;;;;7.20;6.50;;;22.90;99.90;;;;;;5047311;28;20474;-67
2023/08/12 08:22:18;;;;;;;6.40;5.33;;;23.10;99.90;;;;;;5047717;28;20543;-67
2023/08/12 08:24:44;;;;;;;7.07;6.43;;;23.30;99.90;;;;;;5047375;28;20496;-67
2023/08/12 08:27:13;;;;;;;6.67;6.00;;;23.50;99.90;;;;;;5046638;28;20900;-66
2023/08/12 08:29:39;;;;;;;8.07;6.20;;;23.70;99.90;;;;;;5072947;22;21735;-63
2023/08/12 08:32:08;;;;;;;8.23;5.73;;;23.90;99.90;;;;;;5067711;28;21134;-62
2023/08/12 08:34:35;;;;;;;6.30;5.90;;;24.00;99.90;;;;;;5067059;28;20445;-62
2023/08/12 08:37:02;;;;;;;6.87;6.37;;;24.20;99.90;;;;;;5066467;28;20449;-62
2023/08/12 08:39:29;;;;;;;6.30;5.80;;;24.30;99.90;;;;;;5065498;28;21131;-63
2023/08/12 08:41:57;;;;;;;5.80;5.30;;;24.40;99.90;;;;;;5047494;28;20454;-63
2023/08/12 08:44:24;;;;;;;6.87;6.23;;;24.50;99.90;;;;;;5047425;28;20488;-63
2023/08/12 08:46:53;;;;;;;6.20;5.70;;;24.60;99.90;;;;;;5046134;28;20793;-63
2023/08/12 08:49:22;;;;;;;6.43;5.93;;;24.70;99.90;;;;;;5047414;28;20548;-63
2023/08/12 08:51:50;;;;;;;7.13;6.50;;;24.80;99.90;;;;;;5047708;28;20504;-63
2023/08/12 08:54:18;;;;;;;6.23;5.63;;;25.00;99.90;;;;;;5047164;28;20527;-63
2023/08/12 08:56:45;;;;;;;5.80;5.40;;;25.20;99.90;;;;;;5046654;28;20474;-63
2023/08/12 08:59:12;;;;;;;7.47;6.23;;;25.40;99.90;;;;;;5047466;28;20458;-63
2023/08/12 09:01:40;;;;;;;5.90;5.60;;;25.50;99.90;;;;;;5047150;28;20480;-63
2023/08/12 09:04:08;;;;;;;5.80;5.40;;;25.70;99.90;;;;;;5047380;28;20514;-63
2023/08/12 09:06:37;;;;;;;5.70;5.20;;;25.80;99.90;;;;;;5046411;28;20882;-63
2023/08/12 09:09:06;;;;;;;6.10;5.60;;;26.00;99.90;;;;;;5046935;28;20498;-63
2023/08/12 09:11:34;;;;;;;5.87;5.37;;;26.10;99.90;;;;;;5047129;28;20472;-63
2023/08/12 09:14:01;;;;;;;6.00;5.70;;;26.30;99.90;;;;;;5045382;28;20502;-63
2023/08/12 09:16:28;;;;;;;5.77;5.47;;;26.30;99.90;;;;;;5046327;28;20536;-63
2023/08/12 09:18:56;;;;;;;7.20;6.60;;;26.30;99.90;;;;;;5047092;28;20833;-63
2023/08/12 09:21:24;;;;;;;6.37;5.87;;;26.20;99.90;;;;;;5047278;28;20565;-63
2023/08/12 09:23:52;;;;;;;6.47;6.07;;;26.20;99.90;;;;;;5047568;28;20499;-63
2023/08/12 09:26:20;;;;;;;5.97;5.57;;;26.00;99.90;;;;;;5046568;28;20550;-63
2023/08/12 09:28:48;;;;;;;5.63;5.23;;;25.90;99.90;;;;;;5047105;28;20538;-63
2023/08/12 09:31:24;;;;;;;6.93;5.93;;;25.80;99.90;;;;;;5046705;28;20578;-63
2023/08/12 09:33:51;;;;;;;6.93;6.33;;;25.70;99.90;;;;;;5044294;28;20457;-62
2023/08/12 09:36:18;;;;;;;6.50;5.90;;;25.50;99.90;;;;;;5045903;28;20536;-63
2023/08/12 09:38:45;;;;;;;6.87;6.37;;;25.40;99.90;;;;;;5046545;28;20542;-63
2023/08/12 09:41:13;;;;;;;6.17;5.77;;;25.30;99.90;;;;;;5049403;28;21057;-63
2023/08/12 09:43:42;;;;;;;6.10;5.70;;;25.10;99.90;;;;;;5049732;28;20511;-63
2023/08/12 09:46:12;;;;;;;6.50;6.10;;;25.00;99.90;;;;;;5050086;28;20470;-63
2023/08/12 09:48:39;;;;;;;6.70;6.20;;;24.90;99.90;;;;;;5050349;28;20453;-63
2023/08/12 09:51:06;;;;;;;7.00;6.40;;;24.80;99.90;;;;;;5050505;28;20478;-62
2023/08/12 09:53:34;;;;;;;6.50;6.00;;;24.80;99.90;;;;;;5049671;28;20445;-62
2023/08/12 09:56:06;;;;;;;6.17;5.77;;;24.80;99.90;;;;;;5049484;28;20471;-63
2023/08/12 09:58:36;;;;;;;6.53;5.93;;;24.70;99.90;;;;;;5050073;28;20444;-62
2023/08/12 10:01:04;;;;;;;6.60;6.20;;;24.80;99.90;;;;;;5050013;28;20577;-62
2023/08/12 10:03:32;;;;;;;6.70;6.20;;;24.80;99.90;;;;;;5049629;28;20513;-62
2023/08/12 10:06:00;;;;;;;7.93;6.30;;;24.90;99.90;;;;;;5060660;28;20487;-63
2023/08/12 10:08:28;;;;;;;7.90;7.10;;;25.00;99.90;;;;;;5069470;28;20885;-62
2023/08/12 10:10:55;;;;;;;7.03;6.53;;;25.10;99.90;;;;;;5069279;28;20504;-62
2023/08/12 10:13:23;;;;;;;7.13;6.63;;;25.20;99.90;;;;;;5064225;28;20888;-62
2023/08/12 10:15:52;;;;;;;6.77;6.37;;;25.40;99.90;;;;;;5046857;28;20448;-62
2023/08/12 10:18:20;;;;;;;7.77;7.17;;;25.50;99.90;;;;;;5049430;28;21019;-63
2023/08/12 10:20:48;;;;;;;6.27;5.77;;;25.70;99.90;;;;;;5049180;28;20554;-63
2023/08/12 10:23:18;;;;;;;6.87;6.47;;;25.80;99.90;;;;;;5049032;28;20538;-63
2023/08/12 10:25:46;;;;;;;6.50;5.90;;;26.00;99.90;;;;;;5049157;28;20581;-63
2023/08/12 10:28:13;;;;;;;6.23;5.77;;;26.20;99.90;;;;;;5048778;28;20456;-63
2023/08/12 10:30:41;;;;;;;7.23;6.70;;;26.30;99.90;;;;;;5048793;28;20983;-62
2023/08/12 10:33:10;;;;;;;6.60;6.20;;;26.50;99.90;;;;;;5049219;28;20547;-62
2023/08/12 10:35:48;;;;;;;6.90;6.27;;;26.70;99.90;;;;;;5048723;28;20866;-63
2023/08/12 10:38:18;;;;;;;6.60;6.00;;;26.70;99.90;;;;;;5049338;28;20539;-62
2023/08/12 10:40:45;;;;;;;6.33;5.83;;;26.70;99.90;;;;;;5049056;28;20566;-62
2023/08/12 10:43:13;;;;;;;6.70;6.30;;;26.70;99.90;;;;;;5049138;28;20549;-62
2023/08/12 10:45:45;;;;;;;7.07;6.57;;;26.80;99.90;;;;;;5048709;28;20585;-62
2023/08/12 10:48:20;;;;;;;7.13;6.47;;;26.90;99.90;;;;;;5048019;28;21070;-61
2023/08/12 10:50:49;;;;;;;7.03;6.53;;;27.00;99.90;;;;;;5048950;28;20501;-62
2023/08/12 10:53:29;;;;;;;7.10;6.60;;;27.00;99.90;;;;;;5048440;28;20687;-62
2023/08/12 10:55:58;;;;;;;6.87;6.37;;;27.00;99.90;;;;;;5048383;28;20446;-62
2023/08/12 10:58:29;;;;;;;5.97;5.57;;;27.10;99.90;;;;;;5047915;28;20469;-61
2023/08/12 11:00:57;;;;;;;6.70;6.20;;;27.10;99.90;;;;;;5040342;28;20469;-62
2023/08/12 11:03:25;;;;;;;6.53;6.03;;;27.10;99.90;;;;;;5046948;28;20548;-63
2023/08/12 11:05:55;;;;;;;7.17;6.73;;;27.10;99.90;;;;;;5048138;28;20494;-62
2023/08/12 11:08:29;;;;;;;6.40;5.50;;;27.20;99.90;;;;;;5048565;28;20942;-63
2023/08/12 11:10:57;;;;;;;6.80;6.37;;;27.30;99.90;;;;;;5047843;28;20485;-62
2023/08/12 11:13:24;;;;;;;6.40;5.90;;;27.40;99.90;;;;;;5047870;28;20446;-62
2023/08/12 11:15:51;;;;;;;6.33;5.80;;;27.50;99.90;;;;;;5047865;28;20443;-62
2023/08/12 11:18:19;;;;;;;6.87;6.27;;;27.50;99.90;;;;;;5048094;28;20451;-62
2023/08/12 11:20:49;;;;;;;6.43;5.93;;;27.50;99.90;;;;;;5048271;28;21219;-62
2023/08/12 11:23:16;;;;;;;6.73;6.23;;;27.60;99.90;;;;;;5048183;28;20446;-62
2023/08/12 11:25:44;;;;;;;7.43;6.93;;;27.70;99.90;;;;;;5048101;28;20523;-62
2023/08/12 11:28:11;;;;;;;6.60;6.10;;;27.90;99.90;;;;;;5047769;28;20454;-63
2023/08/12 11:30:42;;;;;;;5.87;5.37;;;28.00;99.90;;;;;;5048087;28;20510;-62
2023/08/12 11:33:08;;;;;;;6.63;6.17;;;28.00;99.90;;;;;;5048262;28;20450;-62
2023/08/12 11:35:36;;;;;;;6.27;5.87;;;28.00;99.90;;;;;;5047640;28;20451;-62
2023/08/12 11:38:07;;;;;;;6.33;5.83;;;28.00;99.90;;;;;;5047281;28;20454;-62
2023/08/12 11:40:35;;;;;;;6.60;6.00;;;28.00;99.90;;;;;;5047697;28;20478;-62
2023/08/12 11:43:03;;;;;;;6.93;6.43;;;28.00;99.90;;;;;;5048255;28;20886;-62
2023/08/12 11:45:29;;;;;;;5.87;5.47;;;28.10;99.90;;;;;;5047850;28;20496;-62
2023/08/12 11:47:57;;;;;;;7.07;6.57;;;28.10;99.90;;;;;;5047236;28;20827;-62
2023/08/12 11:50:26;;;;;;;6.93;5.90;;;28.10;99.90;;;;;;5047672;28;20992;-62
2023/08/12 11:52:54;;;;;;;6.10;5.60;;;28.10;99.90;;;;;;5047806;28;20999;-62
2023/08/12 11:55:22;;;;;;;5.83;5.33;;;28.20;99.90;;;;;;5047561;28;20535;-62
2023/08/12 11:57:49;;;;;;;6.40;6.00;;;28.40;99.90;;;;;;5046832;28;20452;-62
2023/08/12 12:00:18;;;;;;;7.90;7.30;;;28.60;99.90;;;;;;5046996;28;20472;-62
2023/08/12 12:02:49;;;;;;;6.67;6.27;;;28.80;99.90;;;;;;5047234;28;20540;-63
2023/08/12 12:05:17;;;;;;;6.93;6.30;;;29.00;99.90;;;;;;5047196;28;20523;-62
2023/08/12 12:07:44;;;;;;;5.83;5.43;;;29.00;99.40;;;;;;5046755;28;20458;-63
2023/08/12 12:10:15;;;;;;;6.27;5.77;;;29.00;99.60;;;;;;5047640;28;20483;-62
2023/08/12 12:12:45;;;;;;;6.13;5.73;;;28.90;99.90;;;;;;5047440;28;20458;-62
2023/08/12 12:15:14;;;;;;;6.77;5.83;;;28.80;98.20;;;;;;5047439;28;20566;-62
2023/08/12 12:17:41;;;;;;;6.10;5.60;;;28.70;99.20;;;;;;5046606;28;21201;-62
2023/08/12 12:20:11;;;;;;;7.30;6.57;;;28.50;99.50;;;;;;5047160;28;20567;-62
2023/08/12 12:22:39;;;;;;;6.83;6.43;;;28.40;99.30;;;;;;5047541;28;20462;-62
2023/08/12 12:25:10;;;;;;;7.07;6.47;;;28.20;99.60;;;;;;5047150;28;20494;-62
2023/08/12 12:27:38;;;;;;;6.47;6.07;;;27.90;99.90;;;;;;5046467;28;20530;-62
2023/08/12 12:30:09;;;;;;;4.70;4.30;;;27.60;99.90;;;;;;5046870;28;21187;-62
2023/08/12 12:32:36;;;;;;;3.27;3.07;;;27.40;99.90;;;;;;5047043;28;21016;-62
2023/08/12 12:35:04;;;;;;;3.03;2.83;;;27.00;99.90;;;;;;5047006;28;20986;-63
2023/08/12 12:37:31;;;;;;;2.30;2.10;;;26.60;99.90;;;;;;5043887;28;20451;-62
2023/08/12 12:39:57;;;;;;;2.30;1.93;;;26.10;99.90;;;;;;5046352;28;20469;-63
2023/08/12 12:42:24;;;;;;;7.83;2.77;;;25.50;99.90;;;;;;5044701;28;20448;-63
2023/08/12 12:44:51;;;;;;;41.33;7.10;;;24.80;99.90;;;;;;5046942;28;20511;-63
2023/08/12 12:47:20;;;;;;;13.43;4.90;;;24.00;99.90;;;;;;5046194;28;20451;-63